Time;durP1;ratioP1;P1;durP2;ratioP2;P2;SDS_P1;SDS_P2;PMS_P1;PMS_P2;Temp;Humidity;BMP_temperature;BMP_pressure;BME280_temperature;BME280_humidity;BME280_pressure;Samples;Min_cycle;Max_cycle;Signal;HPM_P1;HPM_P2
2022/07/18 00:01:01;;;;;;;2.97;1.55;;;19.10;52.90;;;18.41;54.86;96754.03;4938304;28;20446;-65
2022/07/18 00:03:27;;;;;;;2.53;1.88;;;19.10;52.80;;;18.39;54.84;96762.25;4943529;28;20544;-65
2022/07/18 00:05:52;;;;;;;4.70;1.98;;;19.00;53.00;;;18.33;54.88;96758.63;4947711;28;20042;-65
2022/07/18 00:08:18;;;;;;;3.88;2.10;;;19.00;53.00;;;18.31;55.27;96758.00;4965050;28;20487;-65
2022/07/18 00:10:44;;;;;;;4.15;1.95;;;19.00;53.20;;;18.28;54.76;96761.13;4949468;28;20157;-65
2022/07/18 00:13:10;;;;;;;3.22;2.03;;;18.80;53.30;;;18.21;55.06;96764.91;4948870;28;20031;-66
2022/07/18 00:15:36;;;;;;;3.15;1.80;;;18.80;53.60;;;18.15;55.36;96755.13;4947090;28;20460;-65
2022/07/18 00:18:02;;;;;;;6.13;2.13;;;18.70;54.10;;;18.07;56.68;96761.53;4935078;29;20518;-65
2022/07/18 00:20:29;;;;;;;2.83;1.77;;;18.70;54.50;;;18.05;56.86;96763.63;4929051;28;20031;-65
2022/07/18 00:22:54;;;;;;;5.05;1.85;;;18.70;55.00;;;18.00;56.89;96768.78;4915040;29;20052;-64
2022/07/18 00:25:20;;;;;;;4.10;2.20;;;18.60;55.50;;;17.93;57.30;96762.72;4919040;29;20700;-64
2022/07/18 00:27:46;;;;;;;2.65;1.88;;;18.60;55.20;;;17.91;57.40;96764.78;4923769;28;20043;-64
2022/07/18 00:30:12;;;;;;;2.67;1.88;;;18.60;55.40;;;17.88;57.75;96767.84;4947355;28;20032;-64
2022/07/18 00:32:37;;;;;;;4.72;2.15;;;18.60;55.10;;;17.85;57.40;96768.31;4922089;28;20055;-65
2022/07/18 00:35:04;;;;;;;4.93;1.83;;;18.60;54.80;;;17.83;57.94;96762.38;4931588;29;20114;-65
2022/07/18 00:37:29;;;;;;;3.35;1.90;;;18.60;54.90;;;17.84;57.24;96764.00;4950301;28;20511;-64
2022/07/18 00:39:55;;;;;;;5.53;2.00;;;18.50;54.60;;;17.79;57.79;96762.00;4949446;28;20051;-65
2022/07/18 00:42:21;;;;;;;4.40;2.03;;;18.50;55.20;;;17.74;57.79;96760.00;4926797;28;20110;-65
2022/07/18 00:44:46;;;;;;;4.40;1.75;;;18.50;55.30;;;17.71;57.79;96757.78;4933720;28;20043;-66
2022/07/18 00:47:12;;;;;;;3.15;2.10;;;18.50;55.50;;;17.65;57.66;96755.97;4929064;28;20078;-65
2022/07/18 00:49:38;;;;;;;3.45;2.03;;;18.40;55.30;;;17.61;58.21;96754.75;4933630;28;20035;-65
2022/07/18 00:52:04;;;;;;;4.63;2.00;;;18.40;55.40;;;17.60;58.45;96747.00;4938346;28;20469;-64
2022/07/18 00:54:32;;;;;;;4.47;2.20;;;18.40;55.50;;;17.60;58.44;96755.78;4930127;28;20035;-64
2022/07/18 00:56:58;;;;;;;3.38;2.10;;;18.40;55.30;;;17.57;58.29;96756.22;4934872;28;20023;-64
2022/07/18 01:01:42;;;;;;;3.45;1.90;;;18.30;55.30;;;17.55;58.12;96755.63;4913562;28;20090;-65
2022/07/18 01:02:09;;;;;;;2.40;1.92;;;18.30;55.20;;;17.53;58.02;96757.69;4952302;28;20043;-65
2022/07/18 01:04:35;;;;;;;3.88;2.22;;;18.30;55.10;;;17.51;57.65;96754.44;4934549;28;20036;-65
2022/07/18 01:07:01;;;;;;;2.33;1.95;;;18.30;54.90;;;17.50;57.64;96758.13;4938385;28;20035;-65
2022/07/18 01:09:27;;;;;;;3.00;2.10;;;18.20;54.90;;;17.47;58.10;96753.25;4929641;29;20050;-65
2022/07/18 01:11:52;;;;;;;3.25;1.95;;;18.20;55.00;;;17.44;57.85;96751.03;4916744;28;20053;-65
2022/07/18 01:14:18;;;;;;;5.45;2.00;;;18.10;55.00;;;17.39;58.04;96746.31;4913548;28;20036;-65
2022/07/18 01:16:44;;;;;;;3.42;2.00;;;18.10;54.70;;;17.36;58.28;96753.91;4923373;28;20106;-65
2022/07/18 01:19:10;;;;;;;2.58;1.83;;;18.10;55.00;;;17.33;57.67;96760.50;4918382;29;20048;-65
2022/07/18 01:21:37;;;;;;;4.53;1.77;;;18.10;55.20;;;17.30;58.17;96752.94;4916570;28;20651;-64
2022/07/18 01:24:03;;;;;;;2.80;1.60;;;18.10;55.40;;;17.25;59.13;96759.94;4948205;28;20031;-65
2022/07/18 01:26:29;;;;;;;3.17;2.00;;;18.00;56.00;;;17.19;58.53;96747.47;4945683;28;20174;-64
2022/07/18 01:28:54;;;;;;;5.22;2.28;;;17.90;56.00;;;17.15;59.59;96750.56;4929965;29;20503;-65
2022/07/18 01:31:20;;;;;;;3.25;1.95;;;17.80;56.30;;;17.12;58.80;96753.66;4961821;28;20042;-65
2022/07/18 01:33:46;;;;;;;6.38;2.05;;;17.90;56.50;;;17.09;59.72;96750.63;4935880;28;20039;-65
2022/07/18 01:36:12;;;;;;;4.45;2.13;;;17.80;56.70;;;17.09;60.15;96751.44;4947945;28;20095;-65
2022/07/18 01:38:38;;;;;;;3.60;2.25;;;17.80;56.70;;;17.07;60.10;96753.50;4939953;23;20422;-63
2022/07/18 01:41:04;;;;;;;2.65;1.92;;;17.80;57.10;;;17.05;60.52;96752.91;4942284;28;20494;-62
2022/07/18 01:43:29;;;;;;;4.22;2.50;;;17.70;57.30;;;16.97;60.23;96753.13;4948183;28;20514;-62
2022/07/18 01:45:55;;;;;;;4.90;2.53;;;17.70;57.60;;;16.92;60.83;96752.97;4965202;28;20150;-62
2022/07/18 01:48:23;;;;;;;3.47;2.60;;;17.60;57.90;;;16.89;60.87;96756.06;4975263;28;20498;-63
2022/07/18 01:50:49;;;;;;;4.80;2.40;;;17.70;57.80;;;16.84;61.51;96756.69;4948800;28;20042;-62
2022/07/18 01:53:14;;;;;;;3.85;2.40;;;17.60;57.70;;;16.82;60.82;96756.09;4931812;28;20507;-62
2022/07/18 01:55:40;;;;;;;3.55;2.40;;;17.60;58.00;;;16.83;61.41;96751.59;4928449;29;20039;-63
2022/07/18 01:58:06;;;;;;;4.03;2.33;;;17.60;57.90;;;16.80;61.32;96749.34;4933546;28;20048;-62
2022/07/18 02:00:32;;;;;;;3.90;2.42;;;17.60;58.00;;;16.78;61.47;96748.75;4930060;28;20535;-62
2022/07/18 02:02:58;;;;;;;3.35;2.33;;;17.60;58.20;;;16.74;61.16;96745.69;4927016;29;20083;-62
2022/07/18 02:05:25;;;;;;;5.13;2.70;;;17.50;58.40;;;16.71;61.97;96758.59;4943447;28;20119;-62
2022/07/18 02:07:51;;;;;;;3.95;2.50;;;17.40;58.50;;;16.68;61.69;96759.81;4942087;28;20044;-63
2022/07/18 02:10:20;;;;;;;4.13;2.55;;;17.40;58.50;;;16.65;62.16;96754.91;4970583;28;20040;-62
2022/07/18 02:12:46;;;;;;;8.65;5.97;;;17.40;58.80;;;16.61;62.17;96760.84;4931020;28;20166;-63
2022/07/18 02:15:12;;;;;;;7.57;5.88;;;17.30;58.80;;;16.56;62.45;96750.06;4929991;28;20487;-63
2022/07/18 02:17:38;;;;;;;5.03;3.63;;;17.20;59.10;;;16.49;62.56;96753.53;4933542;28;20039;-62
2022/07/18 02:20:09;;;;;;;8.95;2.95;;;17.20;59.40;;;16.44;62.94;96748.03;4946685;28;20058;-63
2022/07/18 02:22:35;;;;;;;;;;;17.20;59.50;;;16.38;64.63;96743.56;4963988;28;20039;-63
2022/07/18 02:25:01;;;;;;;21.52;17.10;;;17.10;60.20;;;16.34;63.55;96747.69;4946225;28;19922;-63
2022/07/18 02:27:26;;;;;;;11.23;9.23;;;17.10;61.00;;;16.32;64.40;96739.09;4934100;28;20130;-65
2022/07/18 02:29:52;;;;;;;7.57;5.95;;;17.10;61.10;;;16.28;64.20;96742.38;4945027;28;20043;-63
2022/07/18 02:32:18;;;;;;;4.90;3.30;;;17.10;61.10;;;16.28;64.49;96747.66;4926549;28;20042;-62
2022/07/18 02:34:44;;;;;;;4.07;2.75;;;17.10;60.50;;;16.23;64.51;96748.31;4936357;28;20032;-63
2022/07/18 02:37:10;;;;;;;2.50;2.30;;;17.00;61.60;;;16.17;65.80;96752.63;4959027;28;20038;-62
2022/07/18 02:39:36;;;;;;;3.83;2.13;;;16.90;62.20;;;16.11;65.83;96752.63;4930687;29;20043;-63
2022/07/18 02:42:02;;;;;;;2.75;2.00;;;16.90;62.80;;;16.06;66.94;96760.38;4934937;28;20035;-63
2022/07/18 02:44:28;;;;;;;5.70;2.33;;;16.80;63.10;;;16.03;66.59;96755.50;4946157;28;20035;-66
2022/07/18 02:46:53;;;;;;;3.72;2.50;;;16.70;63.70;;;15.99;67.86;96754.28;4979897;28;20114;-63
2022/07/18 02:49:28;;;;;;;3.28;2.40;;;16.70;63.90;;;15.96;68.17;96762.66;4976980;28;20043;-62
2022/07/18 02:52:04;;;;;;;11.32;10.00;;;16.70;64.20;;;15.89;70.11;96758.19;4949213;28;20035;-63
2022/07/18 02:54:31;;;;;;;12.18;6.38;;;16.60;64.80;;;15.84;69.25;96768.59;4949809;28;20035;-62
2022/07/18 02:56:57;;;;;;;9.15;6.65;;;16.60;64.80;;;15.81;68.87;96761.03;4951036;28;20028;-63
2022/07/18 02:59:23;;;;;;;6.45;3.53;;;16.60;65.30;;;15.78;69.09;96758.78;4933916;28;20055;-63
2022/07/18 03:01:49;;;;;;;11.82;6.90;;;16.60;65.20;;;15.77;70.41;96767.78;4921140;28;20047;-63
2022/07/18 03:04:16;;;;;;;13.48;8.18;;;16.60;65.00;;;15.73;70.34;96766.56;4949427;28;20467;-63
2022/07/18 03:06:42;;;;;;;14.02;11.45;;;16.60;64.90;;;15.72;69.49;96769.41;4918905;28;20581;-63
2022/07/18 03:09:08;;;;;;;18.15;14.30;;;16.60;65.00;;;15.70;69.81;96772.28;4933719;29;20035;-63
2022/07/18 03:11:33;;;;;;;20.08;16.98;;;16.60;64.90;;;15.69;69.78;96775.94;4950226;28;20141;-63
2022/07/18 03:13:59;;;;;;;7.82;6.50;;;16.60;64.50;;;15.70;69.28;96782.06;4934128;28;20647;-64
2022/07/18 03:16:25;;;;;;;9.80;8.55;;;16.60;64.30;;;15.67;70.28;96772.69;4946594;28;20032;-63
2022/07/18 03:18:51;;;;;;;9.02;7.30;;;16.60;64.20;;;15.69;70.05;96780.44;4945446;28;20110;-65
2022/07/18 03:21:16;;;;;;;11.50;8.43;;;16.60;64.00;;;15.66;69.17;96780.84;4945222;28;20255;-63
2022/07/18 03:23:42;;;;;;;10.25;6.20;;;16.50;63.70;;;15.61;68.98;96774.31;4951408;28;20498;-63
2022/07/18 03:26:08;;;;;;;11.38;8.02;;;16.40;63.50;;;15.56;68.35;96773.25;4951766;28;20039;-63
2022/07/18 03:28:33;;;;;;;5.40;3.78;;;16.40;63.50;;;15.52;69.02;96780.78;4924161;28;20042;-62
2022/07/18 03:30:59;;;;;;;7.45;6.18;;;16.40;63.60;;;15.51;68.41;96789.78;4933095;29;20603;-63
2022/07/18 03:33:27;;;;;;;7.32;5.00;;;16.40;63.70;;;15.51;69.46;96783.66;4968913;28;20643;-63
2022/07/18 03:35:53;;;;;;;8.63;6.13;;;16.40;63.30;;;15.51;68.94;96783.66;4950041;28;20474;-63
2022/07/18 03:38:19;;;;;;;8.80;6.45;;;16.40;63.30;;;15.46;69.94;96786.91;4933606;28;20091;-63
2022/07/18 03:40:44;;;;;;;8.40;7.38;;;16.30;63.20;;;15.43;69.30;96792.63;4936301;28;20126;-63
2022/07/18 03:43:10;;;;;;;7.40;4.50;;;16.30;63.60;;;15.43;68.37;96795.28;4932209;28;20077;-63
2022/07/18 03:45:36;;;;;;;9.70;6.00;;;16.30;63.20;;;15.42;68.39;96788.34;4931414;29;20035;-64
2022/07/18 03:48:02;;;;;;;6.60;3.00;;;16.30;63.50;;;15.39;68.55;96788.75;4915845;28;20134;-64
2022/07/18 03:50:27;;;;;;;4.05;2.80;;;16.30;63.40;;;15.38;69.22;96799.53;4950908;28;20118;-64
2022/07/18 03:52:54;;;;;;;4.88;2.65;;;16.20;63.70;;;15.35;68.96;96790.16;4956088;28;20039;-65
2022/07/18 03:55:20;;;;;;;4.90;2.80;;;16.20;63.60;;;15.31;69.16;96792.41;4945822;28;20038;-62
2022/07/18 03:57:45;;;;;;;5.60;2.60;;;16.30;63.60;;;15.28;69.23;96784.03;4949051;28;20063;-63
2022/07/18 04:00:12;;;;;;;5.88;2.70;;;16.30;63.30;;;15.25;69.42;96790.56;4951167;28;20413;-63
2022/07/18 04:02:43;;;;;;;7.30;2.88;;;16.20;63.00;;;15.22;68.80;96785.66;4931746;28;20114;-63
2022/07/18 04:05:09;;;;;;;6.13;2.65;;;16.20;62.70;;;15.16;68.19;96781.19;4954670;28;20114;-63
2022/07/18 04:07:35;;;;;;;4.65;2.88;;;16.10;62.80;;;15.15;68.61;96795.41;4951308;28;20118;-63
2022/07/18 04:10:01;;;;;;;5.20;2.67;;;16.10;63.00;;;15.18;68.94;96784.44;4952622;28;20031;-64
2022/07/18 04:12:27;;;;;;;4.85;2.50;;;16.20;63.30;;;15.23;69.63;96781.19;4935250;28;20049;-64
2022/07/18 04:14:52;;;;;;;5.85;2.80;;;16.20;63.20;;;15.21;69.95;96784.03;4935134;28;20035;-63
2022/07/18 04:17:18;;;;;;;4.47;2.60;;;16.20;63.00;;;15.25;69.73;96785.25;4944504;28;20495;-63
2022/07/18 04:19:44;;;;;;;5.70;3.13;;;16.40;62.80;;;15.29;69.32;96786.47;4951088;28;20043;-63
2022/07/18 04:22:09;;;;;;;5.45;2.85;;;16.40;62.30;;;15.35;68.22;96787.50;4952652;28;20047;-63
2022/07/18 04:24:35;;;;;;;6.53;2.90;;;16.50;62.20;;;15.38;68.09;96788.94;4944379;28;20043;-63
2022/07/18 04:27:01;;;;;;;3.63;2.55;;;16.50;62.30;;;15.41;68.69;96783.25;4959189;28;20050;-63
2022/07/18 04:29:27;;;;;;;3.75;2.90;;;16.50;62.30;;;15.41;69.04;96796.50;4966852;28;20054;-65
2022/07/18 04:31:52;;;;;;;7.20;3.10;;;16.40;61.90;;;15.43;68.86;96792.63;4952387;28;20047;-62
2022/07/18 04:34:18;;;;;;;9.98;3.47;;;16.50;62.10;;;15.42;67.47;96790.19;4928239;28;20411;-62
2022/07/18 04:36:44;;;;;;;6.40;4.07;;;16.40;61.70;;;15.40;68.87;96798.34;4943165;28;20202;-63
2022/07/18 04:39:09;;;;;;;3.72;2.90;;;16.40;61.80;;;15.41;68.98;96793.84;4950626;28;20404;-63
2022/07/18 04:41:35;;;;;;;4.05;2.55;;;16.40;62.00;;;15.43;68.52;96794.47;4952334;28;20050;-63
2022/07/18 04:44:01;;;;;;;5.72;3.15;;;16.60;61.90;;;15.43;68.48;96797.94;4964697;28;20495;-62
2022/07/18 04:46:27;;;;;;;5.07;3.50;;;16.50;62.20;;;15.48;69.05;96806.09;4934485;28;20031;-63
2022/07/18 04:48:52;;;;;;;4.72;3.40;;;16.60;62.00;;;15.52;69.03;96795.88;4951808;28;20024;-63
2022/07/18 04:51:18;;;;;;;15.00;10.60;;;16.70;62.20;;;15.57;68.50;96793.44;4961097;28;20515;-62
2022/07/18 04:53:44;;;;;;;43.90;35.13;;;16.70;62.30;;;15.64;68.61;96793.50;4934274;29;20066;-63
2022/07/18 04:56:09;;;;;;;39.45;32.72;;;16.80;62.20;;;15.70;69.19;96793.50;4943866;28;20039;-63
2022/07/18 04:58:35;;;;;;;20.42;16.52;;;16.90;62.00;;;15.74;68.43;96793.91;4938027;28;20151;-63
2022/07/18 05:01:01;;;;;;;7.95;6.00;;;17.00;61.60;;;15.79;69.03;96788.78;4942826;29;20036;-63
2022/07/18 05:03:27;;;;;;;9.48;5.47;;;17.00;61.60;;;15.82;69.24;96791.03;4942807;28;20035;-65
2022/07/18 05:05:52;;;;;;;5.13;4.43;;;17.00;61.90;;;15.87;68.52;96792.06;4954769;28;20604;-63
2022/07/18 05:08:18;;;;;;;11.95;4.80;;;17.10;61.50;;;15.91;68.72;96795.94;4949210;28;20031;-63
2022/07/18 05:10:44;;;;;;;6.68;4.22;;;17.10;61.80;;;16.00;69.17;96793.06;4934569;29;20044;-63
2022/07/18 05:13:09;;;;;;;9.38;3.90;;;17.20;61.90;;;16.04;68.67;96797.75;4934563;28;20144;-63
2022/07/18 05:15:35;;;;;;;6.70;3.83;;;17.30;61.90;;;16.11;68.41;96801.22;4926227;28;20099;-63
2022/07/18 05:18:01;;;;;;;7.57;4.13;;;17.30;61.70;;;16.16;68.94;96790.78;4949957;28;20103;-63
2022/07/18 05:20:27;;;;;;;6.13;3.35;;;17.40;61.80;;;16.24;69.76;96800.38;4934385;28;20039;-62
2022/07/18 05:22:53;;;;;;;5.93;3.20;;;17.60;62.20;;;16.33;69.34;96793.84;4950533;28;20039;-63
2022/07/18 05:25:19;;;;;;;7.38;4.07;;;17.60;62.20;;;16.41;70.39;96796.25;4941784;28;20039;-63
2022/07/18 05:27:45;;;;;;;6.18;3.70;;;17.70;62.50;;;16.49;70.35;96792.53;4934136;28;20054;-63
2022/07/18 05:30:12;;;;;;;9.73;5.82;;;17.80;62.50;;;16.57;70.07;96800.31;4934483;28;20122;-63
2022/07/18 05:32:41;;;;;;;16.75;13.95;;;17.90;62.40;;;16.64;70.30;96802.94;4966027;28;20023;-63
2022/07/18 05:35:08;;;;;;;26.98;21.38;;;18.00;63.00;;;16.71;70.90;96795.78;4949339;28;20050;-63
2022/07/18 05:37:35;;;;;;;22.55;16.38;;;18.10;63.00;;;16.80;70.90;96787.38;4934205;29;20410;-63
2022/07/18 05:40:05;;;;;;;25.70;20.80;;;18.20;62.90;;;16.91;71.41;96783.22;4951393;28;20042;-63
2022/07/18 05:42:31;;;;;;;18.00;13.80;;;18.30;62.40;;;17.02;70.29;96785.22;4951214;28;20042;-64
2022/07/18 05:44:56;;;;;;;8.35;5.38;;;18.60;61.10;;;17.14;69.51;96783.50;4945813;29;20118;-63
2022/07/18 05:47:22;;;;;;;8.52;4.78;;;18.60;59.90;;;17.26;68.88;96788.97;4982337;28;20035;-64
2022/07/18 05:49:48;;;;;;;6.70;4.10;;;18.70;59.60;;;17.39;68.18;96780.09;4949887;28;20462;-63
2022/07/18 05:52:13;;;;;;;5.85;3.40;;;18.90;59.00;;;17.53;67.67;96784.28;4950730;28;20502;-64
2022/07/18 05:54:39;;;;;;;7.43;3.47;;;19.00;58.20;;;17.65;67.10;96782.56;4961580;28;20082;-63
2022/07/18 05:57:05;;;;;;;6.13;3.47;;;19.20;57.70;;;17.81;67.04;96789.22;4945872;28;20570;-63
2022/07/18 05:59:31;;;;;;;8.63;3.70;;;19.40;57.70;;;17.98;66.58;96784.16;4933396;28;20036;-63
2022/07/18 06:01:56;;;;;;;4.35;3.00;;;19.60;57.40;;;18.13;66.24;96784.66;4949099;28;20129;-63
2022/07/18 06:04:22;;;;;;;23.92;19.80;;;19.80;56.70;;;18.30;65.62;96783.03;4925415;28;20043;-63
2022/07/18 06:06:49;;;;;;;18.05;13.85;;;20.00;56.50;;;18.48;66.13;96784.06;4944837;29;20036;-63
2022/07/18 06:09:16;;;;;;;9.25;5.28;;;20.20;55.60;;;18.67;64.47;96786.53;4938605;29;20122;-64
2022/07/18 06:11:41;;;;;;;5.78;3.50;;;20.50;54.90;;;18.86;64.33;96778.53;4948667;28;20047;-64
2022/07/18 06:14:07;;;;;;;4.43;3.30;;;20.60;53.30;;;19.06;63.00;96783.63;4928122;29;20583;-64
2022/07/18 06:16:33;;;;;;;4.82;3.40;;;20.90;53.20;;;19.30;63.40;96785.34;4952593;28;20034;-64
2022/07/18 06:18:58;;;;;;;5.38;3.30;;;21.20;54.20;;;19.51;64.59;96782.16;4969020;28;20043;-64
2022/07/18 06:21:24;;;;;;;7.10;3.00;;;21.60;54.10;;;19.72;64.69;96780.00;4954866;28;20031;-64
2022/07/18 06:23:50;;;;;;;5.90;2.63;;;21.80;53.50;;;19.91;61.42;96778.84;4960526;28;20530;-64
2022/07/18 06:26:16;;;;;;;4.20;2.45;;;22.00;49.80;;;20.08;60.68;96787.81;4968993;28;20126;-64
2022/07/18 06:28:41;;;;;;;6.38;3.22;;;22.20;49.40;;;20.29;60.18;96780.25;4954262;28;20055;-64
2022/07/18 06:31:07;;;;;;;4.45;2.88;;;22.60;49.60;;;20.51;59.93;96783.97;4941401;28;20247;-64
2022/07/18 06:33:33;;;;;;;7.05;3.00;;;22.90;50.00;;;20.72;60.41;96778.00;4936645;28;20063;-64
2022/07/18 06:35:59;;;;;;;6.13;2.83;;;23.10;49.50;;;20.94;60.22;96775.50;4936883;28;20038;-64
2022/07/18 06:38:25;;;;;;;6.60;2.83;;;23.30;48.60;;;21.09;59.37;96766.97;4952025;28;20059;-64
2022/07/18 06:40:50;;;;;;;5.05;3.05;;;23.40;48.30;;;21.27;58.19;96774.81;4945471;28;20051;-64
2022/07/18 06:43:19;;;;;;;14.52;11.07;;;23.70;47.70;;;21.50;58.14;96767.72;4944096;28;20043;-64
2022/07/18 06:45:48;;;;;;;7.80;5.35;;;24.10;47.10;;;21.78;57.28;96774.91;4940899;28;20063;-64
2022/07/18 06:48:14;;;;;;;5.65;3.60;;;24.40;46.30;;;21.99;57.05;96782.22;4955884;28;20054;-63
2022/07/18 06:50:40;;;;;;;6.63;3.88;;;24.60;45.10;;;22.18;56.28;96780.09;4933243;28;20187;-63
2022/07/18 06:53:06;;;;;;;7.63;3.00;;;24.80;44.80;;;22.34;55.27;96779.25;4933246;28;20507;-64
2022/07/18 06:55:32;;;;;;;5.97;3.10;;;25.00;44.00;;;22.51;55.22;96780.03;4939642;28;20088;-63
2022/07/18 06:57:57;;;;;;;4.40;3.13;;;25.20;44.40;;;22.70;53.67;96777.06;4934015;28;20354;-64
2022/07/18 07:00:23;;;;;;;6.57;2.60;;;25.40;43.30;;;22.91;53.57;96781.66;4934093;28;20036;-64
2022/07/18 07:02:49;;;;;;;7.80;2.60;;;25.60;43.10;;;23.11;53.65;96779.19;4933104;29;20032;-63
2022/07/18 07:05:17;;;;;;;7.47;2.95;;;25.90;42.80;;;23.31;53.42;96780.47;4917579;29;20043;-64
2022/07/18 07:07:43;;;;;;;4.88;2.95;;;26.10;42.50;;;23.57;52.31;96793.13;4948849;28;20438;-64
2022/07/18 07:10:09;;;;;;;8.80;3.45;;;26.50;41.30;;;23.81;51.95;96786.34;4932924;28;20031;-64
2022/07/18 07:12:48;;;;;;;3.47;2.80;;;26.80;40.60;;;24.06;50.16;96784.94;4933908;28;20028;-63
2022/07/18 07:15:14;;;;;;;3.55;2.60;;;27.10;39.60;;;24.32;49.78;96778.69;4962274;28;20077;-64
2022/07/18 07:17:40;;;;;;;3.03;2.22;;;27.30;38.90;;;24.60;48.72;96782.06;4952817;28;20055;-64
2022/07/18 07:20:07;;;;;;;6.60;2.40;;;27.60;37.90;;;24.88;47.73;96775.44;4951245;28;20130;-63
2022/07/18 07:22:50;;;;;;;5.88;2.50;;;28.00;36.70;;;25.18;44.55;96777.50;4952883;28;20061;-64
2022/07/18 07:25:16;;;;;;;4.45;2.25;;;28.10;36.30;;;25.45;46.51;96775.38;4952051;28;20105;-63
2022/07/18 07:27:42;;;;;;;5.07;2.22;;;28.50;35.90;;;25.77;45.94;96782.44;4935890;28;20479;-64
2022/07/18 07:30:08;;;;;;;4.43;2.28;;;28.80;35.80;;;26.01;44.90;96771.94;4942247;28;20032;-64
2022/07/18 07:32:36;;;;;;;7.18;2.33;;;28.90;35.60;;;26.25;43.74;96768.44;4959297;28;20271;-64
2022/07/18 07:35:11;;;;;;;5.68;2.40;;;29.00;34.20;;;26.49;42.77;96774.06;4951556;28;20553;-64
2022/07/18 07:37:41;;;;;;;14.13;10.23;;;29.20;34.80;;;26.72;42.84;96771.84;4959198;28;20495;-64
2022/07/18 07:40:07;;;;;;;;;;;29.60;34.30;;;27.03;42.21;96761.75;4950446;28;20040;-62
2022/07/18 07:42:33;;;;;;;5.10;3.55;;;30.10;34.00;;;27.27;43.13;96767.28;4927119;28;19930;-64
2022/07/18 07:44:59;;;;;;;4.03;2.05;;;30.30;32.70;;;27.59;42.15;96772.19;4951265;28;21838;-63
2022/07/18 07:47:25;;;;;;;4.32;2.25;;;30.60;33.00;;;27.94;41.92;96765.75;4944837;28;20035;-64
2022/07/18 07:49:51;;;;;;;4.38;1.83;;;31.00;33.10;;;28.29;41.12;96770.03;4952389;28;20035;-64
2022/07/18 07:52:17;;;;;;;6.53;2.10;;;31.40;32.60;;;28.58;40.85;96770.03;4924449;28;20044;-63
2022/07/18 07:54:46;;;;;;;4.32;2.00;;;31.70;32.20;;;28.91;40.04;96768.31;4967540;28;20542;-64
2022/07/18 07:57:13;;;;;;;5.07;1.67;;;32.00;31.20;;;29.28;38.64;96765.66;4952430;28;20086;-64
2022/07/18 07:59:38;;;;;;;6.55;1.90;;;32.30;29.40;;;29.58;37.94;96760.91;4952268;28;20499;-64
2022/07/18 08:02:04;;;;;;;6.50;2.00;;;32.50;29.90;;;29.81;37.45;96760.00;4944867;28;20071;-63
2022/07/18 08:04:30;;;;;;;4.18;1.65;;;32.70;29.70;;;30.00;37.15;96757.25;4951526;28;20047;-63
2022/07/18 08:06:56;;;;;;;7.35;2.20;;;32.90;30.20;;;30.23;36.98;96755.53;4967043;28;20051;-64
2022/07/18 08:09:22;;;;;;;9.10;1.90;;;33.10;29.90;;;30.37;36.35;96756.38;4966817;28;20095;-63
2022/07/18 08:11:47;;;;;;;7.90;2.40;;;33.10;28.70;;;30.61;36.07;96753.50;4929343;28;20063;-64
2022/07/18 08:14:13;;;;;;;8.07;1.90;;;33.40;29.00;;;30.78;35.30;96748.28;4947781;28;20034;-65
2022/07/18 08:16:39;;;;;;;4.97;1.92;;;33.60;27.80;;;30.94;34.88;96754.19;4967249;28;20031;-63
2022/07/18 08:19:04;;;;;;;12.27;10.80;;;33.70;27.00;;;31.11;33.56;96748.13;4938927;28;20047;-63
2022/07/18 08:21:30;;;;;;;6.32;3.53;;;34.00;26.30;;;31.20;33.42;96745.50;4951665;28;20734;-64
2022/07/18 08:23:56;;;;;;;4.22;2.53;;;34.00;25.30;;;31.35;32.75;96748.69;4950771;28;20039;-64
2022/07/18 08:26:22;;;;;;;6.97;2.20;;;34.40;26.10;;;31.58;33.42;96737.84;4966660;28;20035;-63
2022/07/18 08:28:47;;;;;;;4.30;1.70;;;34.80;26.50;;;31.85;32.57;96739.69;4957793;28;20035;-63
2022/07/18 08:31:13;;;;;;;5.78;1.77;;;35.20;26.60;;;32.07;32.01;96739.66;4947647;28;20162;-63
2022/07/18 08:33:39;;;;;;;3.13;1.50;;;35.30;25.00;;;32.28;31.84;96737.25;4934889;28;20039;-63
2022/07/18 08:36:05;;;;;;;4.07;1.90;;;35.60;25.10;;;32.58;31.87;96746.50;4934327;28;20035;-64
2022/07/18 08:38:31;;;;;;;6.63;1.80;;;35.80;25.90;;;32.81;32.13;96739.88;4942053;28;20046;-64
2022/07/18 08:40:56;;;;;;;4.22;1.70;;;36.00;25.10;;;33.04;31.80;96740.56;4961448;28;20031;-64
2022/07/18 08:43:24;;;;;;;5.68;1.70;;;36.30;24.40;;;33.23;29.54;96745.72;4934572;28;20552;-64
2022/07/18 08:45:51;;;;;;;4.93;1.58;;;36.50;23.00;;;33.38;29.58;96739.84;4934672;28;20081;-64
2022/07/18 08:48:16;;;;;;;5.10;1.95;;;36.50;22.80;;;33.55;29.74;96744.53;4935448;28;20043;-64
2022/07/18 08:50:46;;;;;;;3.47;1.45;;;36.50;23.90;;;33.77;28.34;96738.09;4947098;28;20128;-64
2022/07/18 08:53:13;;;;;;;3.90;1.90;;;36.60;23.40;;;33.94;29.11;96732.59;4947184;28;20039;-63
2022/07/18 08:55:39;;;;;;;5.75;1.70;;;36.60;23.60;;;34.08;29.19;96733.22;4946981;28;20055;-64
2022/07/18 08:58:04;;;;;;;3.85;1.13;;;36.80;23.50;;;34.24;28.06;96724.53;4933493;28;21816;-64
2022/07/18 09:00:30;;;;;;;4.10;1.33;;;37.00;20.80;;;34.37;27.06;96726.25;4950458;28;20039;-63
2022/07/18 09:03:00;;;;;;;5.20;1.58;;;37.10;21.00;;;34.49;26.60;96731.06;4950155;28;20086;-63
2022/07/18 09:05:26;;;;;;;3.10;1.38;;;37.00;20.70;;;34.65;26.14;96730.19;4966458;28;20557;-63
2022/07/18 09:07:52;;;;;;;5.85;3.75;;;37.40;20.30;;;34.76;25.68;96724.34;4963428;28;20039;-63
2022/07/18 09:10:18;;;;;;;5.68;4.25;;;37.40;20.60;;;34.80;25.64;96725.28;4941828;28;20118;-63
2022/07/18 09:12:57;;;;;;;5.75;2.00;;;37.50;20.70;;;34.95;25.04;96730.22;4951697;28;20188;-63
2022/07/18 09:15:22;;;;;;;2.43;1.27;;;37.50;21.40;;;35.01;25.29;96728.88;4948648;28;20175;-63
2022/07/18 09:17:50;;;;;;;2.58;1.30;;;37.50;20.60;;;34.99;24.87;96731.13;4945250;28;20510;-63
2022/07/18 09:20:16;;;;;;;6.10;1.00;;;37.40;20.70;;;34.94;24.39;96737.59;4951575;28;20134;-63
2022/07/18 09:22:44;;;;;;;2.63;1.25;;;37.30;18.70;;;35.00;24.05;96730.00;4947339;28;20079;-63
2022/07/18 09:25:14;;;;;;;3.28;1.13;;;37.40;20.00;;;35.05;23.63;96735.28;4930874;28;20956;-63
2022/07/18 09:27:43;;;;;;;2.35;0.93;;;37.50;19.90;;;35.14;23.84;96744.25;4926607;29;20050;-63
2022/07/18 09:30:28;;;;;;;2.00;1.00;;;37.60;19.30;;;35.26;22.01;96733.38;4950224;28;20062;-63
2022/07/18 09:33:15;;;;;;;1.75;0.90;;;37.70;18.10;;;35.40;22.59;96730.41;4951352;28;20036;-63
2022/07/18 09:35:46;;;;;;;1.83;1.08;;;37.90;19.30;;;35.45;22.02;96737.59;4929987;28;20047;-63
2022/07/18 09:38:20;;;;;;;3.05;0.90;;;38.10;17.90;;;35.57;22.43;96729.47;4959244;28;20067;-63
2022/07/18 09:40:54;;;;;;;1.98;1.17;;;38.30;18.50;;;35.73;22.38;96740.59;4945983;28;20111;-63
2022/07/18 09:43:21;;;;;;;4.20;1.67;;;38.50;19.40;;;35.79;22.63;96731.84;4932666;28;20511;-63
2022/07/18 09:45:55;;;;;;;2.67;1.50;;;38.50;18.30;;;35.80;20.29;96735.38;4945264;28;20036;-63
2022/07/18 09:48:21;;;;;;;5.47;1.02;;;38.70;16.60;;;35.96;21.98;96727.34;4947347;28;20165;-63
2022/07/18 09:50:52;;;;;;;2.65;1.10;;;38.80;17.90;;;36.09;21.32;96723.53;4936279;28;20127;-63
2022/07/18 09:53:20;;;;;;;2.65;0.88;;;39.00;17.70;;;36.23;22.59;96721.28;4946140;28;20055;-63
2022/07/18 09:55:56;;;;;;;2.17;1.17;;;39.10;18.00;;;36.36;21.00;96722.91;4942492;28;20122;-63
2022/07/18 09:58:24;;;;;;;3.17;1.00;;;39.40;17.30;;;36.46;21.71;96719.75;4964803;28;20038;-63
2022/07/18 10:00:50;;;;;;;4.33;1.20;;;39.50;17.90;;;36.56;21.44;96723.16;4934856;29;20040;-63
2022/07/18 10:03:16;;;;;;;2.53;1.10;;;39.70;17.30;;;36.60;21.30;96724.88;4936180;28;20182;-63
2022/07/18 10:05:43;;;;;;;2.03;1.02;;;39.90;16.80;;;36.70;21.91;96724.44;4953998;28;20042;-63
2022/07/18 10:08:15;;;;;;;1.98;1.02;;;40.30;16.70;;;36.92;21.16;96725.94;4954451;28;20042;-63
2022/07/18 10:10:42;;;;;;;3.22;1.00;;;40.70;15.70;;;37.16;22.14;96727.06;4939329;28;20038;-63
2022/07/18 10:13:08;;;;;;;1.55;1.10;;;41.00;16.90;;;37.45;21.82;96728.72;4954883;28;20586;-64
2022/07/18 10:15:36;;;;;;;1.92;0.93;;;41.40;16.60;;;37.82;20.68;96727.47;4946887;28;20134;-63